Time;durP1;ratioP1;P1;durP2;ratioP2;P2;SDS_P1;SDS_P2;PMS_P1;PMS_P2;Temp;Humidity;BMP_temperature;BMP_pressure;BME280_temperature;BME280_humidity;BME280_pressure;Samples;Min_cycle;Max_cycle;Signal;HPM_P1;HPM_P2
2022/10/21 00:02:24;;;;;;;1.60;1.15;;;;;;;;;;10471057;28;20041;-80
2022/10/21 00:07:29;;;;;;;1.58;1.48;;;;;;;;;;10483402;28;20047;-80
2022/10/21 00:12:33;;;;;;;2.00;1.50;;;;;;;;;;10470191;28;20043;-80
2022/10/21 00:17:40;;;;;;;2.00;1.50;;;;;;;;;;10461318;28;20044;-80
2022/10/21 00:22:43;;;;;;;3.75;1.65;;;;;;;;;;10470903;28;20517;-80
2022/10/21 00:27:46;;;;;;;2.03;1.40;;;;;;;;;;10467659;28;20055;-80
2022/10/21 00:32:54;;;;;;;;;;;;;;;;;;10476743;28;20040;-80
2022/10/21 00:37:59;;;;;;;3.35;1.30;;;;;;;;;;10474115;28;19930;-80
2022/10/21 00:43:02;;;;;;;1.45;1.30;;;;;;;;;;10480826;28;20087;-81
2022/10/21 00:48:13;;;;;;;1.45;1.33;;;;;;;;;;10470579;28;20043;-80
2022/10/21 00:53:18;;;;;;;2.83;1.42;;;;;;;;;;10484497;28;20048;-80
2022/10/21 00:58:24;;;;;;;2.78;1.77;;;;;;;;;;10484028;28;20063;-79
2022/10/21 01:03:31;;;;;;;2.75;2.08;;;;;;;;;;10468450;28;20041;-81
2022/10/21 01:08:35;;;;;;;3.47;1.83;;;;;;;;;;10465909;28;20041;-80
2022/10/21 01:13:50;;;;;;;2.80;1.42;;;;;;;;;;10473269;28;20039;-80
2022/10/21 01:19:01;;;;;;;2.70;1.38;;;;;;;;;;10474310;28;20041;-80
2022/10/21 01:24:39;;;;;;;2.78;1.70;;;;;;;;;;10472643;28;20044;-80
2022/10/21 01:30:20;;;;;;;1.52;1.42;;;;;;;;;;10459436;28;20037;-79
2022/10/21 01:35:30;;;;;;;7.75;2.03;;;;;;;;;;10469141;28;20045;-80
2022/10/21 01:40:37;;;;;;;2.72;1.55;;;;;;;;;;10449929;28;20047;-80
2022/10/21 01:45:46;;;;;;;3.08;1.95;;;;;;;;;;10481645;28;20037;-80
2022/10/21 01:50:54;;;;;;;2.33;1.92;;;;;;;;;;10457882;28;20068;-80
2022/10/21 01:55:59;;;;;;;2.13;1.60;;;;;;;;;;10449340;28;20047;-78
2022/10/21 02:01:05;;;;;;;1.63;1.52;;;;;;;;;;10476754;28;20059;-80
2022/10/21 02:06:12;;;;;;;;;;;;;;;;;;10472263;28;20086;-80
2022/10/21 02:11:17;;;;;;;1.58;1.48;;;;;;;;;;10494569;28;19943;-79
2022/10/21 02:16:25;;;;;;;3.13;1.80;;;;;;;;;;10496899;28;20040;-80
2022/10/21 02:21:34;;;;;;;3.38;2.40;;;;;;;;;;10488387;28;20047;-79
2022/10/21 02:26:38;;;;;;;1.90;1.70;;;;;;;;;;10492376;28;20044;-79
2022/10/21 02:32:04;;;;;;;3.35;2.00;;;;;;;;;;10497495;28;20050;-81
2022/10/21 02:37:17;;;;;;;2.75;1.55;;;;;;;;;;10500439;28;20048;-81
2022/10/21 02:42:25;;;;;;;2.40;1.85;;;;;;;;;;10484154;28;20435;-79
2022/10/21 02:47:29;;;;;;;1.70;1.60;;;;;;;;;;10497055;28;20166;-79
2022/10/21 02:52:33;;;;;;;1.88;1.60;;;;;;;;;;10478945;28;20049;-82
2022/10/21 02:57:36;;;;;;;2.28;1.52;;;;;;;;;;10468432;28;20435;-80
2022/10/21 03:02:40;;;;;;;3.78;1.92;;;;;;;;;;10476063;28;20067;-83
2022/10/21 03:07:45;;;;;;;3.35;1.52;;;;;;;;;;10482860;28;20665;-82
2022/10/21 03:12:49;;;;;;;1.90;1.38;;;;;;;;;;10481771;28;20059;-80
2022/10/21 03:17:53;;;;;;;1.30;1.02;;;;;;;;;;10465057;28;20626;-78
2022/10/21 03:22:57;;;;;;;2.90;1.20;;;;;;;;;;10464751;28;20052;-78
2022/10/21 03:28:01;;;;;;;1.48;0.95;;;;;;;;;;10476307;28;20045;-79
2022/10/21 03:33:04;;;;;;;1.42;0.88;;;;;;;;;;10479293;28;20047;-78
2022/10/21 03:38:09;;;;;;;0.95;0.75;;;;;;;;;;10475952;28;20044;-82
2022/10/21 03:43:12;;;;;;;1.05;0.80;;;;;;;;;;10468433;28;20039;-80
2022/10/21 03:48:17;;;;;;;0.70;0.70;;;;;;;;;;10481328;28;20041;-82
2022/10/21 03:53:22;;;;;;;1.15;0.70;;;;;;;;;;10477496;28;20036;-81
2022/10/21 03:58:34;;;;;;;0.90;0.70;;;;;;;;;;10477968;28;20087;-80
2022/10/21 04:03:37;;;;;;;1.10;0.77;;;;;;;;;;10493565;28;20052;-79
2022/10/21 04:08:42;;;;;;;2.75;0.85;;;;;;;;;;10475087;28;20044;-78
2022/10/21 04:13:45;;;;;;;1.20;0.85;;;;;;;;;;10486285;28;20044;-79
2022/10/21 04:18:48;;;;;;;1.10;1.02;;;;;;;;;;10474567;28;20053;-81
2022/10/21 04:23:53;;;;;;;2.33;0.88;;;;;;;;;;10475401;28;20090;-81
2022/10/21 04:28:56;;;;;;;1.33;0.88;;;;;;;;;;10480767;28;20305;-80
2022/10/21 04:34:00;;;;;;;1.38;0.80;;;;;;;;;;10493552;28;20036;-81
2022/10/21 04:39:05;;;;;;;1.13;0.93;;;;;;;;;;10483636;28;20057;-81
2022/10/21 04:44:08;;;;;;;0.90;0.80;;;;;;;;;;10475811;28;20029;-81
2022/10/21 04:49:11;;;;;;;2.70;1.00;;;;;;;;;;10464310;28;20045;-82
2022/10/21 04:54:16;;;;;;;1.52;0.90;;;;;;;;;;10472242;28;20471;-80
2022/10/21 04:59:19;;;;;;;3.92;1.20;;;;;;;;;;10471011;28;20048;-79
2022/10/21 05:04:23;;;;;;;2.67;1.25;;;;;;;;;;10473244;28;20192;-77
2022/10/21 05:09:27;;;;;;;1.40;1.13;;;;;;;;;;10482240;28;20119;-80
2022/10/21 05:14:33;;;;;;;0.85;0.82;;;;;;;;;;10488476;28;20599;-80
2022/10/21 05:19:37;;;;;;;2.22;1.30;;;;;;;;;;10466558;28;20646;-80
2022/10/21 05:24:41;;;;;;;1.35;1.10;;;;;;;;;;10479163;28;20036;-81
2022/10/21 05:29:45;;;;;;;1.38;0.90;;;;;;;;;;10473851;28;20047;-81
2022/10/21 05:34:48;;;;;;;3.08;1.33;;;;;;;;;;10480328;28;20036;-81
2022/10/21 05:39:53;;;;;;;1.10;1.00;;;;;;;;;;10474237;28;20040;-81
2022/10/21 05:44:56;;;;;;;2.00;1.13;;;;;;;;;;10468386;28;20037;-81
2022/10/21 05:49:59;;;;;;;2.45;1.15;;;;;;;;;;10479348;28;20627;-80
2022/10/21 05:55:05;;;;;;;1.55;1.02;;;;;;;;;;10489518;28;20079;-80
2022/10/21 06:00:10;;;;;;;2.88;0.77;;;;;;;;;;10481515;28;20041;-80
2022/10/21 06:05:13;;;;;;;1.15;0.90;;;;;;;;;;10472207;28;20048;-80
2022/10/21 06:10:18;;;;;;;1.30;1.10;;;;;;;;;;10474414;28;20115;-80
2022/10/21 06:15:22;;;;;;;1.42;1.10;;;;;;;;;;10483013;28;20045;-80
2022/10/21 06:20:25;;;;;;;1.17;0.98;;;;;;;;;;10480506;28;20529;-80
2022/10/21 06:25:29;;;;;;;1.00;0.90;;;;;;;;;;10486511;28;20044;-81
2022/10/21 06:30:33;;;;;;;2.30;1.00;;;;;;;;;;10479527;28;20458;-81
2022/10/21 06:35:36;;;;;;;1.40;0.88;;;;;;;;;;10487763;28;20580;-81
2022/10/21 06:40:41;;;;;;;3.45;1.30;;;;;;;;;;10473481;28;20041;-80
2022/10/21 06:45:45;;;;;;;3.50;1.05;;;;;;;;;;10459315;28;20697;-81
2022/10/21 06:50:49;;;;;;;1.55;1.02;;;;;;;;;;10475649;28;20044;-80
2022/10/21 06:56:00;;;;;;;1.73;0.88;;;;;;;;;;10475722;28;20041;-80
2022/10/21 07:01:07;;;;;;;1.42;0.95;;;;;;;;;;10486112;28;20416;-80
2022/10/21 07:06:11;;;;;;;1.75;1.00;;;;;;;;;;10493881;28;20075;-80
2022/10/21 07:11:16;;;;;;;1.73;0.98;;;;;;;;;;10486352;28;20076;-78
2022/10/21 07:16:26;;;;;;;1.35;1.10;;;;;;;;;;10482039;28;20040;-81
2022/10/21 07:21:30;;;;;;;2.78;1.38;;;;;;;;;;10469144;28;20598;-79
2022/10/21 07:26:35;;;;;;;2.45;1.20;;;;;;;;;;10486586;28;20049;-82
2022/10/21 07:31:39;;;;;;;2.83;1.27;;;;;;;;;;10470469;28;20041;-80
2022/10/21 07:36:46;;;;;;;1.73;1.15;;;;;;;;;;10477907;28;20036;-82
2022/10/21 07:41:53;;;;;;;1.02;0.90;;;;;;;;;;10478976;28;20067;-82
2022/10/21 07:46:56;;;;;;;1.55;0.90;;;;;;;;;;10480662;28;20051;-82
2022/10/21 07:51:59;;;;;;;1.90;1.10;;;;;;;;;;10488428;28;20048;-81
2022/10/21 07:57:04;;;;;;;2.63;1.08;;;;;;;;;;10495224;28;20041;-83
2022/10/21 08:02:08;;;;;;;2.22;0.70;;;;;;;;;;10478347;28;20048;-82
2022/10/21 08:07:12;;;;;;;1.20;0.82;;;;;;;;;;10499185;28;20040;-83
2022/10/21 08:12:17;;;;;;;2.90;0.57;;;;;;;;;;10475114;28;20040;-82
2022/10/21 08:17:20;;;;;;;2.75;0.60;;;;;;;;;;10483334;28;20341;-81
2022/10/21 08:22:24;;;;;;;1.48;0.52;;;;;;;;;;10482242;28;20043;-82
2022/10/21 08:27:29;;;;;;;0.45;0.43;;;;;;;;;;10487705;28;20044;-81
2022/10/21 08:32:32;;;;;;;0.85;0.50;;;;;;;;;;10474706;28;20033;-84
2022/10/21 08:37:35;;;;;;;1.02;0.77;;;;;;;;;;10484303;28;20075;-80
2022/10/21 08:42:43;;;;;;;0.55;0.40;;;;;;;;;;10467880;28;20045;-83
2022/10/21 08:47:49;;;;;;;1.92;0.60;;;;;;;;;;10475596;28;20551;-82
2022/10/21 08:52:57;;;;;;;0.77;0.47;;;;;;;;;;10476529;28;20393;-82
2022/10/21 08:58:02;;;;;;;0.60;0.50;;;;;;;;;;10480047;28;20550;-81
2022/10/21 09:03:11;;;;;;;1.03;0.60;;;;;;;;;;10484150;28;20045;-81
2022/10/21 09:08:23;;;;;;;1.00;0.50;;;;;;;;;;10466081;28;20287;-82
2022/10/21 09:13:45;;;;;;;0.65;0.30;;;;;;;;;;10465563;28;20045;-81
2022/10/21 09:18:58;;;;;;;1.15;0.50;;;;;;;;;;10476999;28;20076;-81
2022/10/21 09:24:06;;;;;;;0.90;0.45;;;;;;;;;;10475617;28;20475;-81
2022/10/21 09:29:31;;;;;;;1.40;0.50;;;;;;;;;;10479702;28;20049;-82
2022/10/21 09:34:48;;;;;;;0.45;0.22;;;;;;;;;;10477473;28;20040;-80
2022/10/21 09:39:59;;;;;;;1.20;0.40;;;;;;;;;;10490978;28;20135;-81
2022/10/21 09:45:21;;;;;;;0.80;0.33;;;;;;;;;;10482367;28;20098;-81
2022/10/21 09:50:25;;;;;;;0.35;0.30;;;;;;;;;;10486582;28;20063;-81
2022/10/21 09:55:30;;;;;;;0.50;0.30;;;;;;;;;;10485834;28;20504;-81
2022/10/21 10:00:49;;;;;;;1.73;0.40;;;;;;;;;;10472016;28;20041;-81
2022/10/21 10:05:53;;;;;;;0.22;0.22;;;;;;;;;;10476792;28;20672;-81
2022/10/21 10:11:13;;;;;;;0.60;0.30;;;;;;;;;;10487472;28;20049;-81
2022/10/21 10:16:25;;;;;;;0.22;0.20;;;;;;;;;;10472796;28;20041;-81
2022/10/21 10:21:28;;;;;;;0.38;0.30;;;;;;;;;;10486741;28;20059;-81
2022/10/21 10:26:34;;;;;;;1.15;0.30;;;;;;;;;;10488394;28;20036;-81
2022/10/21 10:31:38;;;;;;;1.57;0.47;;;;;;;;;;10472661;28;20043;-80
2022/10/21 10:36:42;;;;;;;0.57;0.30;;;;;;;;;;10479309;28;20291;-81
2022/10/21 10:41:49;;;;;;;0.45;0.20;;;;;;;;;;10478743;28;20060;-82
2022/10/21 10:46:59;;;;;;;0.68;0.20;;;;;;;;;;10475155;28;20041;-82
2022/10/21 10:52:22;;;;;;;0.40;0.22;;;;;;;;;;10466799;28;20166;-81
2022/10/21 10:57:28;;;;;;;1.77;0.60;;;;;;;;;;10479022;28;20082;-81
2022/10/21 11:02:40;;;;;;;1.25;0.28;;;;;;;;;;10487305;28;20044;-81
2022/10/21 11:07:47;;;;;;;0.63;0.20;;;;;;;;;;10484927;28;20052;-81
2022/10/21 11:12:51;;;;;;;1.67;0.25;;;;;;;;;;10485831;28;20610;-81
2022/10/21 11:18:08;;;;;;;0.85;0.47;;;;;;;;;;10487109;28;20763;-81
2022/10/21 11:23:45;;;;;;;0.75;0.50;;;;;;;;;;10482195;28;20045;-81
2022/10/21 11:28:53;;;;;;;0.70;0.50;;;;;;;;;;10489467;28;20374;-81
2022/10/21 11:34:07;;;;;;;1.05;0.60;;;;;;;;;;10489495;28;20045;-82
2022/10/21 11:39:43;;;;;;;1.63;0.70;;;;;;;;;;10480436;28;20045;-82
2022/10/21 11:45:14;;;;;;;0.52;0.50;;;;;;;;;;10498686;28;20059;-84
2022/10/21 11:50:31;;;;;;;0.30;0.30;;;;;;;;;;10500407;28;20538;-80
2022/10/21 11:55:41;;;;;;;1.02;0.40;;;;;;;;;;10494504;28;20036;-80
2022/10/21 12:00:59;;;;;;;0.22;0.22;;;;;;;;;;10477673;28;20062;-81
2022/10/21 12:06:12;;;;;;;2.40;0.30;;;;;;;;;;10474748;28;20078;-81
2022/10/21 12:11:20;;;;;;;5.97;0.40;;;;;;;;;;10475987;28;20068;-78
2022/10/21 12:16:26;;;;;;;0.60;0.22;;;;;;;;;;10471348;28;20037;-82
2022/10/21 12:21:34;;;;;;;1.65;0.45;;;;;;;;;;10484613;28;20064;-81
2022/10/21 12:26:43;;;;;;;0.50;0.30;;;;;;;;;;10476582;28;20127;-80
2022/10/21 12:31:53;;;;;;;0.30;0.10;;;;;;;;;;10482621;28;20041;-81
2022/10/21 12:36:58;;;;;;;0.20;0.10;;;;;;;;;;10480106;28;20053;-80
2022/10/21 12:42:05;;;;;;;0.57;0.40;;;;;;;;;;10469255;28;20067;-80
2022/10/21 12:47:24;;;;;;;0.38;0.30;;;;;;;;;;10470333;28;20040;-80
2022/10/21 12:52:30;;;;;;;1.02;0.40;;;;;;;;;;10466068;28;20052;-79
2022/10/21 12:57:36;;;;;;;0.47;0.30;;;;;;;;;;10475700;28;20412;-81
2022/10/21 13:02:56;;;;;;;0.30;0.30;;;;;;;;;;10470117;28;20041;-80
2022/10/21 13:08:26;;;;;;;1.60;0.75;;;;;;;;;;10465297;28;20115;-80
2022/10/21 13:13:33;;;;;;;1.27;0.40;;;;;;;;;;10458871;28;20055;-80
2022/10/21 13:18:53;;;;;;;0.55;0.20;;;;;;;;;;10474314;28;20088;-79
2022/10/21 13:24:04;;;;;;;0.65;0.45;;;;;;;;;;10475893;28;20067;-80
2022/10/21 13:29:27;;;;;;;0.20;0.20;;;;;;;;;;10470721;28;20043;-80
2022/10/21 13:34:31;;;;;;;3.38;0.40;;;;;;;;;;10468662;28;20509;-81
2022/10/21 13:39:36;;;;;;;1.90;0.40;;;;;;;;;;10476861;28;20518;-80
2022/10/21 13:44:42;;;;;;;0.90;0.30;;;;;;;;;;10470469;28;20041;-79
2022/10/21 13:49:50;;;;;;;;;;;;;;;;;;10483220;28;20055;-78
2022/10/21 13:54:58;;;;;;;0.93;0.50;;;;;;;;;;10482785;28;19921;-79
2022/10/21 14:00:05;;;;;;;1.50;0.50;;;;;;;;;;10484383;28;20431;-80
2022/10/21 14:05:30;;;;;;;1.17;0.40;;;;;;;;;;10472592;28;20132;-80
2022/10/21 14:10:35;;;;;;;0.35;0.20;;;;;;;;;;10478371;28;20059;-80
2022/10/21 14:15:43;;;;;;;1.17;0.57;;;;;;;;;;10470690;28;20524;-78
2022/10/21 14:20:49;;;;;;;1.08;0.35;;;;;;;;;;10478945;28;20048;-78
2022/10/21 14:25:57;;;;;;;0.40;0.40;;;;;;;;;;10481378;28;20052;-80
2022/10/21 14:31:01;;;;;;;1.92;0.40;;;;;;;;;;10487525;28;20044;-80
2022/10/21 14:36:14;;;;;;;0.75;0.30;;;;;;;;;;10478736;28;20040;-79
2022/10/21 14:41:22;;;;;;;0.85;0.35;;;;;;;;;;10478396;28;20663;-81
2022/10/21 14:46:26;;;;;;;0.50;0.30;;;;;;;;;;10486406;28;20056;-79
2022/10/21 14:51:36;;;;;;;0.40;0.30;;;;;;;;;;10488095;28;20060;-79
2022/10/21 14:56:45;;;;;;;0.80;0.63;;;;;;;;;;10478083;28;20056;-80
2022/10/21 15:01:49;;;;;;;0.55;0.50;;;;;;;;;;10481456;28;20544;-80
2022/10/21 15:07:00;;;;;;;0.68;0.60;;;;;;;;;;10477498;28;20052;-81
2022/10/21 15:12:18;;;;;;;1.65;0.70;;;;;;;;;;10481445;28;20051;-80
2022/10/21 15:17:22;;;;;;;1.45;0.50;;;;;;;;;;10486489;28;20037;-78
2022/10/21 15:22:29;;;;;;;1.30;0.40;;;;;;;;;;10487495;28;20076;-81
2022/10/21 15:27:39;;;;;;;0.73;0.30;;;;;;;;;;10478471;28;20048;-81
2022/10/21 15:32:44;;;;;;;0.90;0.47;;;;;;;;;;10490836;28;20040;-81
2022/10/21 15:37:48;;;;;;;1.88;0.70;;;;;;;;;;10475887;28;20049;-78
2022/10/21 15:42:54;;;;;;;0.45;0.40;;;;;;;;;;10465722;28;20044;-79
2022/10/21 15:47:57;;;;;;;2.40;0.73;;;;;;;;;;10472288;28;20068;-80
2022/10/21 15:53:00;;;;;;;1.02;0.55;;;;;;;;;;10470110;28;20393;-80
2022/10/21 15:58:06;;;;;;;1.77;1.10;;;;;;;;;;10470162;28;20048;-80
2022/10/21 16:03:09;;;;;;;2.73;0.90;;;;;;;;;;10478960;28;20110;-79
2022/10/21 16:08:13;;;;;;;5.00;0.73;;;;;;;;;;10468752;28;20040;-80
2022/10/21 16:13:17;;;;;;;1.20;0.60;;;;;;;;;;10483870;28;20055;-80
2022/10/21 16:18:20;;;;;;;1.73;0.63;;;;;;;;;;10476403;28;20045;-77
2022/10/21 16:23:24;;;;;;;1.92;0.90;;;;;;;;;;10471559;28;20043;-79
2022/10/21 16:28:31;;;;;;;2.40;1.02;;;;;;;;;;10461276;28;20040;-80
2022/10/21 16:33:34;;;;;;;4.68;1.90;;;;;;;;;;10476044;28;20044;-80
2022/10/21 16:38:37;;;;;;;11.10;4.03;;;;;;;;;;10478169;28;20090;-79
2022/10/21 16:43:42;;;;;;;2.40;1.38;;;;;;;;;;10486291;28;20500;-79
2022/10/21 16:48:46;;;;;;;1.40;0.98;;;;;;;;;;10477393;28;20040;-80
2022/10/21 16:53:49;;;;;;;2.35;1.17;;;;;;;;;;10483555;28;20052;-78
2022/10/21 16:58:54;;;;;;;3.78;1.10;;;;;;;;;;10477713;28;20548;-79
2022/10/21 17:03:57;;;;;;;2.88;1.40;;;;;;;;;;10484952;28;20560;-79
2022/10/21 17:09:00;;;;;;;2.83;1.20;;;;;;;;;;10473887;28;20040;-78
2022/10/21 17:14:07;;;;;;;3.80;2.15;;;;;;;;;;10485413;28;20547;-81
2022/10/21 17:19:10;;;;;;;3.10;1.80;;;;;;;;;;10479905;28;20090;-80
2022/10/21 17:24:16;;;;;;;3.38;1.83;;;;;;;;;;10481032;28;20052;-81
2022/10/21 17:29:21;;;;;;;1.20;0.90;;;;;;;;;;10466766;28;20043;-80
2022/10/21 17:34:28;;;;;;;2.08;1.05;;;;;;;;;;10469287;28;20037;-80
2022/10/21 17:39:31;;;;;;;3.42;1.48;;;;;;;;;;10485250;28;20040;-79
2022/10/21 17:44:36;;;;;;;3.28;1.60;;;;;;;;;;10475173;28;20043;-80
2022/10/21 17:49:40;;;;;;;4.32;1.60;;;;;;;;;;10484259;28;20037;-79
2022/10/21 17:54:43;;;;;;;3.63;1.27;;;;;;;;;;10474565;28;20052;-80
2022/10/21 17:59:51;;;;;;;3.17;1.20;;;;;;;;;;10476924;28;20032;-78
2022/10/21 18:04:55;;;;;;;3.47;1.05;;;;;;;;;;10490596;28;20048;-79
2022/10/21 18:09:58;;;;;;;2.47;1.30;;;;;;;;;;10491701;28;20048;-81
2022/10/21 18:15:03;;;;;;;4.20;1.38;;;;;;;;;;10490075;28;20048;-80
2022/10/21 18:20:08;;;;;;;5.45;1.23;;;;;;;;;;10492619;28;20036;-80
2022/10/21 18:25:11;;;;;;;4.80;1.70;;;;;;;;;;10480575;28;20044;-78
2022/10/21 18:30:15;;;;;;;4.03;1.30;;;;;;;;;;10487077;28;20040;-80
2022/10/21 18:35:19;;;;;;;2.53;1.27;;;;;;;;;;10473932;28;20064;-77
2022/10/21 18:40:22;;;;;;;1.60;1.00;;;;;;;;;;10491397;28;20735;-78
2022/10/21 18:45:27;;;;;;;1.38;0.75;;;;;;;;;;10491925;28;20064;-81
2022/10/21 18:50:30;;;;;;;1.70;0.90;;;;;;;;;;10484283;28;20037;-79
2022/10/21 18:55:34;;;;;;;2.70;0.55;;;;;;;;;;10490604;28;20044;-78
2022/10/21 19:00:38;;;;;;;4.63;0.82;;;;;;;;;;10475470;28;20055;-80
2022/10/21 19:05:42;;;;;;;1.05;0.70;;;;;;;;;;10481913;28;20063;-79
2022/10/21 19:10:46;;;;;;;0.57;0.50;;;;;;;;;;10481621;28;20045;-80
2022/10/21 19:15:50;;;;;;;1.00;0.70;;;;;;;;;;10483728;28;20052;-79
2022/10/21 19:20:54;;;;;;;1.58;0.60;;;;;;;;;;10482128;28;20044;-80
2022/10/21 19:26:01;;;;;;;1.40;0.75;;;;;;;;;;10491860;28;20055;-80
2022/10/21 19:31:07;;;;;;;1.17;0.70;;;;;;;;;;10481589;28;20048;-77
2022/10/21 19:36:11;;;;;;;3.67;0.90;;;;;;;;;;10475725;28;20041;-81
2022/10/21 19:41:17;;;;;;;4.53;1.70;;;;;;;;;;10467076;28;20048;-80
2022/10/21 19:46:22;;;;;;;0.80;0.70;;;;;;;;;;10473832;28;20531;-81
2022/10/21 19:51:27;;;;;;;1.33;0.60;;;;;;;;;;10473874;28;20116;-78
2022/10/21 19:56:30;;;;;;;1.98;1.00;;;;;;;;;;10470969;28;20045;-80
2022/10/21 20:01:35;;;;;;;2.53;0.80;;;;;;;;;;10488739;28;20071;-80
2022/10/21 20:06:39;;;;;;;2.30;1.00;;;;;;;;;;10486509;28;20051;-77
2022/10/21 20:11:43;;;;;;;2.50;0.77;;;;;;;;;;10484662;28;20052;-78
2022/10/21 20:16:49;;;;;;;0.80;0.63;;;;;;;;;;10478094;28;20088;-80
2022/10/21 20:21:52;;;;;;;5.60;2.95;;;;;;;;;;10475102;28;20426;-79
2022/10/21 20:26:55;;;;;;;10.23;2.75;;;;;;;;;;10485654;28;20059;-78
2022/10/21 20:32:00;;;;;;;3.33;1.85;;;;;;;;;;10472590;28;20416;-81
2022/10/21 20:37:04;;;;;;;2.70;1.33;;;;;;;;;;10464368;28;20047;-80
2022/10/21 20:42:07;;;;;;;4.55;2.00;;;;;;;;;;10497132;28;20061;-79
2022/10/21 20:47:12;;;;;;;4.60;2.97;;;;;;;;;;10468509;28;20043;-80
2022/10/21 20:52:15;;;;;;;6.15;2.67;;;;;;;;;;10489831;28;20048;-79
2022/10/21 20:57:18;;;;;;;4.55;3.00;;;;;;;;;;10475794;28;20037;-78
2022/10/21 21:02:23;;;;;;;5.70;3.65;;;;;;;;;;10488456;28;20051;-79
2022/10/21 21:07:26;;;;;;;4.30;1.73;;;;;;;;;;10485596;28;20111;-79
2022/10/21 21:12:30;;;;;;;3.17;1.60;;;;;;;;;;10477721;28;20052;-81
2022/10/21 21:17:35;;;;;;;6.32;1.30;;;;;;;;;;10467647;28;20036;-79
2022/10/21 21:22:40;;;;;;;2.08;0.75;;;;;;;;;;10477811;28;20067;-78
2022/10/21 21:27:44;;;;;;;2.72;0.80;;;;;;;;;;10480997;28;20123;-80
2022/10/21 21:32:48;;;;;;;1.77;1.30;;;;;;;;;;10471565;28;20052;-79
2022/10/21 21:37:52;;;;;;;3.47;3.17;;;;;;;;;;10477059;28;20048;-78
2022/10/21 21:42:55;;;;;;;5.00;2.65;;;;;;;;;;10474285;28;20123;-81
2022/10/21 21:48:00;;;;;;;1.73;0.70;;;;;;;;;;10462939;28;20733;-77
2022/10/21 21:53:03;;;;;;;2.88;0.80;;;;;;;;;;10469018;28;20028;-82
2022/10/21 21:58:07;;;;;;;0.80;0.80;;;;;;;;;;10469050;28;20551;-80
2022/10/21 22:03:11;;;;;;;1.40;0.55;;;;;;;;;;10467062;28;20444;-81
2022/10/21 22:08:14;;;;;;;1.67;0.70;;;;;;;;;;10464870;28;20037;-80
2022/10/21 22:13:18;;;;;;;3.58;1.30;;;;;;;;;;10479500;28;20504;-81
2022/10/21 22:18:23;;;;;;;4.45;1.15;;;;;;;;;;10474962;28;20043;-81
2022/10/21 22:23:26;;;;;;;2.17;0.82;;;;;;;;;;10487481;28;20047;-79
2022/10/21 22:28:29;;;;;;;1.02;0.57;;;;;;;;;;10457463;28;20041;-79
2022/10/21 22:33:34;;;;;;;0.95;0.70;;;;;;;;;;10468496;28;20409;-81
2022/10/21 22:38:38;;;;;;;1.60;0.90;;;;;;;;;;10473681;28;20128;-81
2022/10/21 22:43:42;;;;;;;0.85;0.80;;;;;;;;;;10483951;28;20040;-79
2022/10/21 22:48:47;;;;;;;2.75;0.88;;;;;;;;;;10458238;28;20454;-78
2022/10/21 22:53:50;;;;;;;1.00;0.90;;;;;;;;;;10484703;28;20044;-79
2022/10/21 22:58:55;;;;;;;4.18;1.00;;;;;;;;;;10495150;28;20102;-80
2022/10/21 23:04:02;;;;;;;1.58;0.70;;;;;;;;;;10488224;28;20047;-79
2022/10/21 23:09:05;;;;;;;3.47;0.80;;;;;;;;;;10483182;28;20051;-79
2022/10/21 23:14:09;;;;;;;0.90;0.70;;;;;;;;;;10490339;28;20059;-79
2022/10/21 23:19:14;;;;;;;1.77;1.20;;;;;;;;;;10474282;28;20052;-78
2022/10/21 23:24:17;;;;;;;1.88;0.88;;;;;;;;;;10492202;28;20033;-79
2022/10/21 23:29:20;;;;;;;3.70;1.40;;;;;;;;;;10482185;28;20421;-79
2022/10/21 23:34:25;;;;;;;6.57;0.90;;;;;;;;;;10484653;28;20036;-79
2022/10/21 23:39:28;;;;;;;1.83;1.17;;;;;;;;;;10474504;28;20045;-78
2022/10/21 23:44:31;;;;;;;1.70;1.00;;;;;;;;;;10490821;28;20040;-79
2022/10/21 23:49:36;;;;;;;1.20;0.82;;;;;;;;;;10481531;28;20056;-79
2022/10/21 23:54:39;;;;;;;3.83;1.30;;;;;;;;;;10478265;28;20052;-78
2022/10/21 23:59:43;;;;;;;0.90;0.90;;;;;;;;;;10474398;28;20044;-77
